createdAt,value
2023-03-22T00:02:07.188Z,55.86
2023-03-22T00:04:34.800Z,55.92
2023-03-22T00:07:02.338Z,55.75
2023-03-22T00:09:30.946Z,55.90
2023-03-22T00:11:58.507Z,56.07
2023-03-22T00:14:25.972Z,56.00
2023-03-22T00:16:53.582Z,56.17
2023-03-22T00:19:21.081Z,56.18
2023-03-22T00:21:48.644Z,56.31
2023-03-22T00:24:16.062Z,56.36
2023-03-22T00:26:43.545Z,56.46
2023-03-22T00:29:11.853Z,56.48
2023-03-22T00:31:39.404Z,56.55
2023-03-22T00:34:07.095Z,56.44
2023-03-22T00:36:34.707Z,56.37
2023-03-22T00:39:04.735Z,56.55
2023-03-22T00:41:32.451Z,56.69
2023-03-22T00:44:00.216Z,56.71
2023-03-22T00:46:27.913Z,56.68
2023-03-22T00:48:55.548Z,56.78
2023-03-22T00:51:24.272Z,56.75
2023-03-22T00:53:53.879Z,56.80
2023-03-22T00:56:22.870Z,56.94
2023-03-22T00:58:50.392Z,56.89
2023-03-22T01:01:17.905Z,57.05
2023-03-22T01:03:54.457Z,57.10
2023-03-22T01:06:23.399Z,57.08
2023-03-22T01:08:51.187Z,57.01
2023-03-22T01:11:18.893Z,57.11
2023-03-22T01:13:47.864Z,57.12
2023-03-22T01:16:16.028Z,57.12
2023-03-22T01:18:44.462Z,57.13
2023-03-22T01:21:12.178Z,57.13
2023-03-22T01:23:39.917Z,57.27
2023-03-22T01:26:07.874Z,57.38
2023-03-22T01:28:35.451Z,57.27
2023-03-22T01:31:04.070Z,57.48
2023-03-22T01:36:16.216Z,57.42
2023-03-22T01:38:43.858Z,57.39
2023-03-22T01:41:11.806Z,57.44
2023-03-22T01:43:39.388Z,57.44
2023-03-22T01:46:08.681Z,57.49
2023-03-22T01:48:48.503Z,57.61
2023-03-22T01:51:22.017Z,57.73
2023-03-22T01:53:52.892Z,57.65
2023-03-22T01:56:31.068Z,57.74
2023-03-22T01:58:59.164Z,57.72
2023-03-22T02:01:27.369Z,57.74
2023-03-22T02:04:03.753Z,57.79
2023-03-22T02:06:32.635Z,57.81
2023-03-22T02:09:00.181Z,57.80
2023-03-22T02:11:38.544Z,57.94
2023-03-22T02:14:14.936Z,57.97
2023-03-22T02:16:42.369Z,58.01
2023-03-22T02:19:42.414Z,57.79
2023-03-22T02:22:40.691Z,58.03
2023-03-22T02:25:26.511Z,58.02
2023-03-22T02:28:10.144Z,58.16
2023-03-22T02:31:00.373Z,58.04
2023-03-22T02:34:17.483Z,58.14
2023-03-22T02:37:03.788Z,58.20
2023-03-22T02:39:41.061Z,58.43
2023-03-22T02:42:28.463Z,58.52
2023-03-22T02:45:33.789Z,58.56
2023-03-22T02:48:09.486Z,58.50
2023-03-22T02:50:59.830Z,58.73
2023-03-22T02:53:37.403Z,58.64
2023-03-22T02:56:12.427Z,58.77
2023-03-22T02:58:47.979Z,58.86
2023-03-22T03:01:23.946Z,58.81
2023-03-22T03:03:56.632Z,58.85
2023-03-22T03:06:28.851Z,58.98
2023-03-22T03:08:58.474Z,59.06
2023-03-22T03:11:26.057Z,59.13
2023-03-22T03:13:53.665Z,59.11
2023-03-22T03:16:26.598Z,59.05
2023-03-22T03:19:01.105Z,59.12
2023-03-22T03:21:42.517Z,59.14
2023-03-22T03:24:42.226Z,59.32
2023-03-22T03:27:28.163Z,59.45
2023-03-22T03:30:13.919Z,59.52
2023-03-22T03:32:52.428Z,59.60
2023-03-22T03:35:23.280Z,59.51
2023-03-22T03:37:53.710Z,59.69
2023-03-22T03:40:28.633Z,59.66
2023-03-22T03:42:59.050Z,59.73
2023-03-22T03:45:26.725Z,59.62
2023-03-22T03:47:59.326Z,59.67
2023-03-22T03:50:28.491Z,59.79
2023-03-22T03:52:56.496Z,59.76
2023-03-22T03:55:26.919Z,59.65
2023-03-22T03:57:54.643Z,59.84
2023-03-22T04:00:22.350Z,59.83
2023-03-22T04:02:49.900Z,59.88
2023-03-22T04:05:17.617Z,59.81
2023-03-22T04:07:45.366Z,59.84
2023-03-22T04:10:12.815Z,59.83
2023-03-22T04:12:43.513Z,59.90
2023-03-22T04:15:12.427Z,59.94
2023-03-22T04:17:41.045Z,59.93
2023-03-22T04:20:11.904Z,60.04
2023-03-22T04:22:40.675Z,60.06
2023-03-22T04:25:12.021Z,60.06
2023-03-22T04:27:41.063Z,60.03
2023-03-22T04:30:12.817Z,59.97
2023-03-22T04:32:40.661Z,60.17
2023-03-22T04:35:08.434Z,60.24
2023-03-22T04:37:36.578Z,60.24
2023-03-22T04:40:08.412Z,60.13
2023-03-22T04:42:36.277Z,60.23
2023-03-22T04:45:04.238Z,60.20
2023-03-22T04:47:31.769Z,60.25
2023-03-22T04:49:59.443Z,60.37
2023-03-22T04:52:27.132Z,60.28
2023-03-22T04:54:54.665Z,60.34
2023-03-22T04:57:22.626Z,60.37
2023-03-22T04:59:50.465Z,60.52
2023-03-22T05:02:18.374Z,60.39
2023-03-22T05:04:46.163Z,60.51
2023-03-22T05:07:13.902Z,60.53
2023-03-22T05:09:41.631Z,60.57
2023-03-22T05:12:09.466Z,60.63
2023-03-22T05:14:37.104Z,60.54
2023-03-22T05:17:05.044Z,60.61
2023-03-22T05:19:33.026Z,60.64
2023-03-22T05:22:01.984Z,60.67
2023-03-22T05:24:49.418Z,60.71
2023-03-22T05:27:17.141Z,60.50
2023-03-22T05:29:45.119Z,60.57
2023-03-22T05:32:12.686Z,60.62
2023-03-22T05:34:41.833Z,60.85
2023-03-22T05:37:09.338Z,60.80
2023-03-22T05:39:36.858Z,60.83
2023-03-22T05:42:04.456Z,60.93
2023-03-22T05:44:31.936Z,60.70
2023-03-22T05:46:59.723Z,60.86
2023-03-22T05:49:27.397Z,60.93
2023-03-22T05:51:55.164Z,60.80
2023-03-22T05:54:22.850Z,60.86
2023-03-22T05:56:52.715Z,60.86
2023-03-22T05:59:21.518Z,60.96
2023-03-22T06:01:49.128Z,60.90
2023-03-22T06:04:16.622Z,60.87
2023-03-22T06:06:44.196Z,61.02
2023-03-22T06:09:17.634Z,61.00
2023-03-22T06:11:47.184Z,60.81
2023-03-22T06:14:15.832Z,60.98
2023-03-22T06:16:43.464Z,61.00
2023-03-22T06:19:11.029Z,61.07
2023-03-22T06:21:38.626Z,61.28
2023-03-22T06:24:06.455Z,61.23
2023-03-22T06:26:34.070Z,61.04
2023-03-22T06:29:03.594Z,61.26
2023-03-22T06:31:31.157Z,61.50
2023-03-22T06:33:58.792Z,61.50
2023-03-22T06:36:26.448Z,61.56
2023-03-22T06:38:57.323Z,61.48
2023-03-22T06:41:27.673Z,61.56
2023-03-22T06:43:55.916Z,61.66
2023-03-22T06:46:26.075Z,61.56
2023-03-22T06:49:02.724Z,61.58
2023-03-22T06:51:35.177Z,61.52
2023-03-22T06:54:02.970Z,61.78
2023-03-22T06:56:30.758Z,61.74
2023-03-22T06:58:58.503Z,61.73
2023-03-22T07:01:29.104Z,61.84
2023-03-22T07:03:57.111Z,61.91
2023-03-22T07:06:25.154Z,61.90
2023-03-22T07:08:53.905Z,62.04
2023-03-22T07:11:21.880Z,62.11
2023-03-22T07:13:50.055Z,62.01
2023-03-22T07:16:20.211Z,62.06
2023-03-22T07:18:48.330Z,62.17
2023-03-22T07:21:16.131Z,62.09
2023-03-22T07:23:44.108Z,62.26
2023-03-22T07:26:13.465Z,62.31
2023-03-22T07:28:44.707Z,62.29
2023-03-22T07:31:14.078Z,62.41
2023-03-22T07:33:41.923Z,62.47
2023-03-22T07:36:11.327Z,62.43
2023-03-22T07:38:39.378Z,62.47
2023-03-22T07:41:07.038Z,62.57
2023-03-22T07:43:47.321Z,62.53
2023-03-22T07:46:20.443Z,62.54
2023-03-22T07:48:48.133Z,62.56
2023-03-22T07:51:16.194Z,62.77
2023-03-22T07:53:44.294Z,62.73
2023-03-22T07:56:11.972Z,62.84
2023-03-22T07:58:41.800Z,62.91
2023-03-22T08:01:12.791Z,62.96
2023-03-22T08:03:43.462Z,63.13
2023-03-22T08:06:12.823Z,63.04
2023-03-22T08:08:40.730Z,63.11
2023-03-22T08:11:08.479Z,63.15
2023-03-22T08:13:36.284Z,63.25
2023-03-22T08:16:04.735Z,63.24
2023-03-22T08:18:32.528Z,63.18
2023-03-22T08:21:02.066Z,63.31
2023-03-22T08:23:40.918Z,63.56
2023-03-22T08:26:11.278Z,63.47
2023-03-22T08:28:39.106Z,63.38
2023-03-22T08:31:16.506Z,63.43
2023-03-22T08:33:45.867Z,63.46
2023-03-22T08:36:17.783Z,63.50
2023-03-22T08:38:45.649Z,63.52
2023-03-22T08:41:16.170Z,63.64
2023-03-22T08:43:44.217Z,63.61
2023-03-22T08:46:12.123Z,63.76
2023-03-22T08:48:41.729Z,63.77
2023-03-22T08:51:09.396Z,63.82
2023-03-22T08:53:37.194Z,63.89
2023-03-22T08:56:10.794Z,63.82
2023-03-22T08:58:38.768Z,63.95
2023-03-22T09:01:10.418Z,64.03
2023-03-22T09:03:39.283Z,64.08
2023-03-22T09:06:11.845Z,64.02
2023-03-22T09:08:45.285Z,64.15
2023-03-22T09:11:18.174Z,64.10
2023-03-22T09:13:52.390Z,63.97
2023-03-22T09:16:21.772Z,64.10
2023-03-22T09:18:51.067Z,64.09
2023-03-22T09:21:22.515Z,64.18
2023-03-22T09:23:50.568Z,64.18
2023-03-22T09:26:18.810Z,64.33
2023-03-22T09:28:46.840Z,64.27
2023-03-22T09:31:19.793Z,64.31
2023-03-22T09:33:48.465Z,64.23
2023-03-22T09:36:16.634Z,64.43
2023-03-22T09:38:48.541Z,64.23
2023-03-22T09:41:35.660Z,64.36
2023-03-22T09:44:14.349Z,64.43
2023-03-22T09:46:50.163Z,64.64
2023-03-22T09:49:26.319Z,64.78
2023-03-22T09:51:55.771Z,64.57
2023-03-22T09:54:31.871Z,64.65
2023-03-22T09:57:04.241Z,64.54
2023-03-22T09:59:57.070Z,64.50
2023-03-22T10:02:58.588Z,64.36
2023-03-22T10:05:39.018Z,64.65
2023-03-22T10:08:23.347Z,64.57
2023-03-22T10:10:53.122Z,64.63
2023-03-22T10:13:27.053Z,64.64
2023-03-22T10:16:02.076Z,64.58
2023-03-22T10:18:55.005Z,64.53
2023-03-22T10:21:26.556Z,64.57
2023-03-22T10:24:17.232Z,64.61
2023-03-22T10:26:49.682Z,64.79
2023-03-22T10:29:40.647Z,64.86
2023-03-22T10:32:17.834Z,64.72
2023-03-22T10:34:49.693Z,64.84
2023-03-22T10:37:25.151Z,64.76
2023-03-22T10:39:56.746Z,64.96
2023-03-22T10:42:28.935Z,64.74
2023-03-22T10:45:08.544Z,64.90
2023-03-22T10:47:41.292Z,64.85
2023-03-22T10:50:28.625Z,65.01
2023-03-22T10:53:02.162Z,65.03
2023-03-22T10:55:30.372Z,64.96
2023-03-22T10:58:18.394Z,65.03
2023-03-22T11:00:53.195Z,65.08
2023-03-22T11:03:44.390Z,65.16
2023-03-22T11:06:15.977Z,65.13
2023-03-22T11:09:01.708Z,65.23
2023-03-22T11:11:49.546Z,65.16
2023-03-22T11:14:21.068Z,65.20
2023-03-22T11:16:59.530Z,65.26
2023-03-22T11:19:58.996Z,65.24
2023-03-22T11:22:47.021Z,65.26
2023-03-22T11:25:20.821Z,65.50
2023-03-22T11:28:05.822Z,65.62
2023-03-22T11:30:34.636Z,65.49
2023-03-22T11:33:19.063Z,65.41
2023-03-22T11:35:55.241Z,65.32
2023-03-22T11:38:29.676Z,65.35
2023-03-22T11:41:11.747Z,65.21
2023-03-22T11:43:48.638Z,65.18
2023-03-22T11:46:21.970Z,65.15
2023-03-22T11:49:01.332Z,65.31
2023-03-22T11:51:42.466Z,65.41
2023-03-22T11:54:29.523Z,65.55
2023-03-22T11:57:06.262Z,65.58
2023-03-22T11:59:39.821Z,65.52
2023-03-22T12:02:32.843Z,65.63
2023-03-22T12:05:17.054Z,65.49
2023-03-22T12:07:46.920Z,65.67
2023-03-22T12:10:29.092Z,65.68
2023-03-22T12:13:07.246Z,65.73
2023-03-22T12:15:45.722Z,65.88
2023-03-22T12:18:45.872Z,65.77
2023-03-22T12:21:15.748Z,65.85
2023-03-22T12:24:16.012Z,65.87
2023-03-22T12:27:02.877Z,65.88
2023-03-22T12:29:35.868Z,65.72
2023-03-22T12:32:10.920Z,65.77
2023-03-22T12:34:43.613Z,65.73
2023-03-22T12:37:18.173Z,65.77
2023-03-22T12:40:00.108Z,65.77
2023-03-22T12:42:56.659Z,65.84
2023-03-22T12:45:29.121Z,65.97
2023-03-22T12:48:21.053Z,65.86
2023-03-22T12:51:01.309Z,66.01
2023-03-22T12:53:42.214Z,66.00
2023-03-22T12:56:17.685Z,66.10
2023-03-22T12:58:53.050Z,66.15
2023-03-22T13:01:33.387Z,66.01
2023-03-22T13:04:37.713Z,65.90
2023-03-22T13:07:16.551Z,65.93
2023-03-22T13:09:53.249Z,66.01
2023-03-22T13:12:22.330Z,65.67
2023-03-22T13:14:50.390Z,65.78
2023-03-22T13:17:24.948Z,65.84
2023-03-22T13:20:18.367Z,65.69
2023-03-22T13:22:57.512Z,65.64
2023-03-22T13:25:38.976Z,65.23
2023-03-22T13:28:26.229Z,65.33
2023-03-22T13:30:58.761Z,65.59
2023-03-22T13:33:35.238Z,65.31
2023-03-22T13:36:26.335Z,65.31
2023-03-22T13:39:00.156Z,65.14
2023-03-22T13:41:34.647Z,65.29
2023-03-22T13:44:29.638Z,65.07
2023-03-22T13:47:08.791Z,64.99
2023-03-22T13:49:57.886Z,65.04
2023-03-22T13:53:06.783Z,65.03
2023-03-22T13:55:41.909Z,65.05
2023-03-22T13:58:39.727Z,64.73
2023-03-22T14:01:25.637Z,64.66
2023-03-22T14:04:06.883Z,64.77
2023-03-22T14:06:55.062Z,64.92
2023-03-22T14:09:34.143Z,64.85
2023-03-22T14:12:32.512Z,64.89
2023-03-22T14:15:07.389Z,64.89
2023-03-22T14:17:56.951Z,64.91
2023-03-22T14:20:30.343Z,65.14
